createdAt,value
2023-11-18T00:00:57.036Z,101830.84
2023-11-18T00:03:23.602Z,101823.81
2023-11-18T00:05:50.093Z,101823.84
2023-11-18T00:08:16.639Z,101822.97
2023-11-18T00:10:43.928Z,101828.25
2023-11-18T00:13:10.455Z,101828.25
2023-11-18T00:15:37.137Z,101820.34
2023-11-18T00:18:03.806Z,101822.97
2023-11-18T00:20:32.033Z,101822.97
2023-11-18T00:22:58.857Z,101819.44
2023-11-18T00:25:25.500Z,101819.44
2023-11-18T00:27:51.998Z,101822.97
2023-11-18T00:30:18.638Z,101819.41
2023-11-18T00:32:45.347Z,101822.97
2023-11-18T00:35:12.162Z,101817.63
2023-11-18T00:37:38.726Z,101815.88
2023-11-18T00:40:05.975Z,101814.16
2023-11-18T00:42:32.434Z,101806.22
2023-11-18T00:44:58.893Z,101812.31
2023-11-18T00:47:25.431Z,101804.41
2023-11-18T00:49:53.728Z,101807.94
2023-11-18T00:52:20.476Z,101804.41
2023-11-18T00:54:47.038Z,101793.88
2023-11-18T00:57:13.519Z,101790.34
2023-11-18T00:59:44.447Z,101791.25
2023-11-18T01:02:11.053Z,101791.25
2023-11-18T01:04:37.572Z,101792.13
2023-11-18T01:07:04.307Z,101789.44
2023-11-18T01:09:34.549Z,101801.78
2023-11-18T01:12:08.056Z,101804.41
2023-11-18T01:14:37.330Z,101793.88
2023-11-18T01:17:10.247Z,101799.16
2023-11-18T01:19:36.743Z,101790.31
2023-11-18T01:22:06.965Z,101795.56
2023-11-18T01:24:34.405Z,101802.59
2023-11-18T01:27:00.844Z,101814.91
2023-11-18T01:29:27.942Z,101821.94
2023-11-18T01:31:56.380Z,101825.47
2023-11-18T01:34:23.532Z,101821.03
2023-11-18T01:36:50.682Z,101830.66
2023-11-18T01:39:18.787Z,101828.03
2023-11-18T01:41:46.514Z,101835.03
2023-11-18T01:44:15.890Z,101825.38
2023-11-18T01:46:45.935Z,101825.38
2023-11-18T01:49:14.827Z,101823.63
2023-11-18T01:51:42.831Z,101826.28
2023-11-18T01:54:09.320Z,101825.38
2023-11-18T01:56:35.821Z,101831.50
2023-11-18T01:59:05.397Z,101834.16
2023-11-18T02:01:32.522Z,101823.63
2023-11-18T02:04:00.206Z,101823.63
2023-11-18T02:06:27.983Z,101824.47
2023-11-18T02:08:54.619Z,101820.97
2023-11-18T02:11:44.012Z,101821.84
2023-11-18T02:14:14.185Z,101812.16
2023-11-18T02:16:41.081Z,101810.38
2023-11-18T02:19:17.871Z,101807.81
2023-11-18T02:21:44.904Z,101810.41
2023-11-18T02:24:11.392Z,101807.78
2023-11-18T02:26:37.839Z,101800.72
2023-11-18T02:29:05.721Z,101806.00
2023-11-18T02:31:34.974Z,101791.94
2023-11-18T02:34:16.719Z,101789.31
2023-11-18T02:36:46.485Z,101793.66
2023-11-18T02:39:22.890Z,101798.09
2023-11-18T02:41:50.281Z,101798.94
2023-11-18T02:44:18.813Z,101792.78
2023-11-18T02:46:45.285Z,101793.63
2023-11-18T02:49:11.786Z,101798.94
2023-11-18T02:51:40.480Z,101800.72
2023-11-18T02:54:07.648Z,101801.56
2023-11-18T02:56:34.145Z,101812.09
2023-11-18T02:59:01.893Z,101814.75
2023-11-18T03:01:28.713Z,101805.91
2023-11-18T03:03:55.960Z,101798.00
2023-11-18T03:06:23.238Z,101789.22
2023-11-18T03:08:49.918Z,101795.38
2023-11-18T03:11:16.366Z,101792.75
2023-11-18T03:13:42.951Z,101781.31
2023-11-18T03:16:12.393Z,101778.66
2023-11-18T03:18:40.589Z,101770.75
2023-11-18T03:21:16.798Z,101766.41
2023-11-18T03:23:43.537Z,101770.75
2023-11-18T03:26:11.284Z,101768.13
2023-11-18T03:28:38.702Z,101763.72
2023-11-18T03:31:05.805Z,101758.47
2023-11-18T03:33:32.664Z,101756.66
2023-11-18T03:35:59.416Z,101753.16
2023-11-18T03:38:26.021Z,101749.63
2023-11-18T03:40:53.293Z,101761.94
2023-11-18T03:43:20.882Z,101760.19
2023-11-18T03:45:48.218Z,101762.81
2023-11-18T03:48:19.590Z,101761.09
2023-11-18T03:50:46.057Z,101768.13
2023-11-18T03:53:12.603Z,101769.84
2023-11-18T03:55:39.159Z,101770.72
2023-11-18T03:58:05.680Z,101769.84
2023-11-18T04:00:33.690Z,101772.47
2023-11-18T04:03:00.462Z,101767.22
2023-11-18T04:05:27.005Z,101768.09
2023-11-18T04:07:53.545Z,101768.06
2023-11-18T04:10:21.510Z,101776.00
2023-11-18T04:12:49.149Z,101773.31
2023-11-18T04:15:16.514Z,101775.03
2023-11-18T04:17:45.148Z,101777.72
2023-11-18T04:20:12.311Z,101785.59
2023-11-18T04:22:40.842Z,101777.66
2023-11-18T04:25:11.644Z,101772.41
2023-11-18T04:27:38.834Z,101758.34
2023-11-18T04:30:05.954Z,101756.56
2023-11-18T04:32:34.101Z,101760.97
2023-11-18T04:35:08.184Z,101756.59
2023-11-18T04:37:37.924Z,101751.38
2023-11-18T04:40:05.016Z,101740.78
2023-11-18T04:42:31.803Z,101722.38
2023-11-18T04:44:58.708Z,101709.16
2023-11-18T04:47:28.595Z,101708.28
2023-11-18T04:49:55.348Z,101707.38
2023-11-18T04:52:21.827Z,101711.78
2023-11-18T04:54:51.606Z,101724.94
2023-11-18T04:57:18.072Z,101717.94
2023-11-18T04:59:44.767Z,101710.94
2023-11-18T05:02:11.359Z,101703.88
2023-11-18T05:04:37.929Z,101698.59
2023-11-18T05:07:05.335Z,101696.84
2023-11-18T05:09:32.303Z,101687.16
2023-11-18T05:11:59.764Z,101678.34
2023-11-18T05:14:27.416Z,101680.06
2023-11-18T05:16:54.636Z,101673.97
2023-11-18T05:19:21.457Z,101663.41
2023-11-18T05:21:50.662Z,101663.41
2023-11-18T05:24:17.383Z,101665.19
2023-11-18T05:26:43.917Z,101659.03
2023-11-18T05:29:11.183Z,101662.50
2023-11-18T05:31:38.453Z,101659.00
2023-11-18T05:34:05.787Z,101659.88
2023-11-18T05:36:38.209Z,101655.50
2023-11-18T05:39:06.136Z,101655.50
2023-11-18T05:41:33.295Z,101660.78
2023-11-18T05:43:59.914Z,101662.50
2023-11-18T05:46:27.260Z,101668.63
2023-11-18T05:48:54.062Z,101666.00
2023-11-18T05:51:30.295Z,101668.63
2023-11-18T05:53:56.844Z,101672.16
2023-11-18T05:56:24.041Z,101672.16
2023-11-18T05:58:51.389Z,101677.41
2023-11-18T06:01:18.054Z,101666.88
2023-11-18T06:03:44.716Z,101658.94
2023-11-18T06:06:12.585Z,101654.53
2023-11-18T06:08:42.888Z,101648.38
2023-11-18T06:11:16.564Z,101650.19
2023-11-18T06:13:44.561Z,101651.91
2023-11-18T06:16:15.170Z,101647.53
2023-11-18T06:18:43.604Z,101657.19
2023-11-18T06:21:21.001Z,101647.50
2023-11-18T06:23:50.945Z,101644.00
2023-11-18T06:26:17.751Z,101635.19
2023-11-18T06:28:45.976Z,101625.56
2023-11-18T06:31:12.885Z,101631.72
2023-11-18T06:33:46.034Z,101639.59
2023-11-18T06:36:15.819Z,101636.91
2023-11-18T06:38:42.623Z,101636.91
2023-11-18T06:41:14.201Z,101640.44
2023-11-18T06:43:53.237Z,101638.72
2023-11-18T06:46:23.446Z,101636.09
2023-11-18T06:48:50.497Z,101630.84
2023-11-18T06:51:17.125Z,101634.31
2023-11-18T06:53:45.407Z,101628.19
2023-11-18T06:56:11.891Z,101637.84
2023-11-18T06:58:42.138Z,101637.84
2023-11-18T07:01:09.219Z,101632.56
2023-11-18T07:03:35.715Z,101635.19
2023-11-18T07:06:02.263Z,101624.66
2023-11-18T07:08:28.762Z,101628.09
2023-11-18T07:10:55.416Z,101635.13
2023-11-18T07:13:24.100Z,101647.44
2023-11-18T07:15:51.366Z,101643.97
2023-11-18T07:18:18.730Z,101654.53
2023-11-18T07:20:45.300Z,101659.00
2023-11-18T07:23:11.771Z,101662.56
2023-11-18T07:25:38.610Z,101653.81
2023-11-18T07:28:06.092Z,101655.63
2023-11-18T07:30:32.525Z,101659.13
2023-11-18T07:33:01.720Z,101663.53
2023-11-18T07:35:28.230Z,101656.53
2023-11-18T07:37:54.685Z,101666.22
2023-11-18T07:40:29.037Z,101641.66
2023-11-18T07:43:02.681Z,101630.22
2023-11-18T07:45:29.901Z,101637.25
2023-11-18T07:47:56.409Z,101627.56
2023-11-18T07:50:22.902Z,101631.13
2023-11-18T07:52:52.361Z,101639.03
2023-11-18T07:55:19.480Z,101623.22
2023-11-18T07:57:46.083Z,101610.94
2023-11-18T08:00:16.162Z,101609.13
2023-11-18T08:02:42.679Z,101612.69
2023-11-18T08:05:10.614Z,101609.19
2023-11-18T08:07:37.162Z,101619.75
2023-11-18T08:10:06.648Z,101631.19
2023-11-18T08:12:33.472Z,101631.19
2023-11-18T08:15:00.981Z,101640.84
2023-11-18T08:17:27.654Z,101645.25
2023-11-18T08:19:54.251Z,101646.13
2023-11-18T08:22:23.965Z,101636.50
2023-11-18T08:24:50.993Z,101644.38
2023-11-18T08:27:17.745Z,101641.84
2023-11-18T08:29:44.383Z,101638.31
2023-11-18T08:32:10.874Z,101637.41
2023-11-18T08:34:38.824Z,101633.00
2023-11-18T08:37:05.804Z,101627.78
2023-11-18T08:39:33.153Z,101637.41
2023-11-18T08:41:59.774Z,101633.91
2023-11-18T08:44:26.237Z,101629.53
2023-11-18T08:46:53.171Z,101614.59
2023-11-18T08:49:22.680Z,101605.84
2023-11-18T08:51:50.440Z,101600.56
2023-11-18T08:54:37.869Z,101603.22
2023-11-18T08:57:24.377Z,101604.88
2023-11-18T08:59:51.948Z,101603.00
2023-11-18T09:02:18.974Z,101601.25
2023-11-18T09:04:45.488Z,101597.69
2023-11-18T09:07:12.023Z,101591.59
2023-11-18T09:09:40.876Z,101594.25
2023-11-18T09:12:09.465Z,101587.19
2023-11-18T09:14:35.894Z,101589.06
2023-11-18T09:17:03.068Z,101585.53
2023-11-18T09:19:30.728Z,101581.97
2023-11-18T09:21:57.178Z,101568.78
2023-11-18T09:24:26.122Z,101567.06
2023-11-18T09:26:52.729Z,101564.50
2023-11-18T09:29:19.385Z,101559.91
2023-11-18T09:31:49.621Z,101561.69
2023-11-18T09:34:18.121Z,101566.97
2023-11-18T09:36:44.980Z,101560.81
2023-11-18T09:39:29.982Z,101559.91
2023-11-18T09:41:57.538Z,101558.16
2023-11-18T09:44:28.148Z,101567.81
2023-11-18T09:47:05.671Z,101557.22
2023-11-18T09:49:39.805Z,101567.78
2023-11-18T09:52:07.055Z,101564.34
2023-11-18T09:54:39.369Z,101571.25
2023-11-18T09:57:20.524Z,101576.56
2023-11-18T09:59:56.354Z,101567.72
2023-11-18T10:02:26.984Z,101569.44
2023-11-18T10:04:58.529Z,101571.28
2023-11-18T10:07:27.961Z,101571.28
2023-11-18T10:09:58.464Z,101555.47
2023-11-18T10:12:27.762Z,101547.56
2023-11-18T10:14:54.305Z,101532.66
2023-11-18T10:17:23.099Z,101522.13
2023-11-18T10:19:53.406Z,101511.56
2023-11-18T10:22:30.336Z,101512.47
2023-11-18T10:24:57.658Z,101514.19
2023-11-18T10:27:26.159Z,101508.97
2023-11-18T10:29:59.475Z,101516.84
2023-11-18T10:32:28.824Z,101513.34
2023-11-18T10:34:59.040Z,101479.97
2023-11-18T10:37:26.471Z,101478.25
2023-11-18T10:39:52.909Z,101469.38
2023-11-18T10:42:19.392Z,101479.03
2023-11-18T10:45:06.599Z,101480.78
2023-11-18T10:47:42.722Z,101478.09
2023-11-18T10:50:11.188Z,101475.47
2023-11-18T10:52:41.482Z,101462.28
2023-11-18T10:55:14.376Z,101452.66
2023-11-18T10:57:42.862Z,101434.28
2023-11-18T11:00:20.785Z,101423.75
2023-11-18T11:02:51.219Z,101417.66
2023-11-18T11:05:34.358Z,101419.44
2023-11-18T11:08:01.275Z,101422.94
2023-11-18T11:10:29.596Z,101409.75
2023-11-18T11:12:56.501Z,101410.66
2023-11-18T11:15:44.971Z,101418.53
2023-11-18T11:18:28.414Z,101425.53
2023-11-18T11:21:06.147Z,101409.69
2023-11-18T11:23:44.960Z,101414.09
2023-11-18T11:26:24.055Z,101418.47
2023-11-18T11:29:20.809Z,101415.88
2023-11-18T11:31:52.838Z,101420.22
2023-11-18T11:34:24.829Z,101420.19
2023-11-18T11:36:52.697Z,101423.69
2023-11-18T11:39:26.377Z,101416.69
2023-11-18T11:41:55.557Z,101409.72
2023-11-18T11:44:22.060Z,101410.59
2023-11-18T11:46:54.264Z,101412.38
2023-11-18T11:49:28.617Z,101416.78
2023-11-18T11:52:00.878Z,101404.47
2023-11-18T11:54:37.722Z,101407.09
2023-11-18T11:57:06.984Z,101399.22
2023-11-18T11:59:47.983Z,101412.34
2023-11-18T12:02:17.207Z,101412.31
2023-11-18T12:04:47.870Z,101415.03
2023-11-18T12:09:45.629Z,101410.66
2023-11-18T12:12:20.148Z,101414.13
2023-11-18T12:14:54.166Z,101396.53
2023-11-18T12:17:23.665Z,101388.66
2023-11-18T12:19:51.196Z,101385.97
2023-11-18T12:22:19.038Z,101366.66
2023-11-18T12:25:08.606Z,101357.00
2023-11-18T12:27:41.277Z,101349.13
2023-11-18T12:30:17.002Z,101330.72
2023-11-18T12:33:11.681Z,101314.94
2023-11-18T12:35:39.104Z,101305.28
2023-11-18T12:38:21.725Z,101295.63
2023-11-18T12:40:53.650Z,101300.91
2023-11-18T12:43:20.209Z,101285.09
2023-11-18T12:46:01.276Z,101287.72
2023-11-18T12:48:28.335Z,101283.34
2023-11-18T12:50:56.774Z,101283.28
2023-11-18T12:53:25.467Z,101277.16
2023-11-18T12:55:53.539Z,101271.88
2023-11-18T12:58:20.105Z,101264.84
2023-11-18T13:00:47.537Z,101263.94
2023-11-18T13:03:16.443Z,101266.56
2023-11-18T13:05:44.559Z,101255.19
2023-11-18T13:08:11.218Z,101245.50
2023-11-18T13:10:37.825Z,101225.31
2023-11-18T13:13:06.062Z,101206.00
2023-11-18T13:15:32.537Z,101213.06
2023-11-18T13:17:59.764Z,101218.34
2023-11-18T13:20:27.226Z,101213.91
2023-11-18T13:22:56.804Z,101199.88
2023-11-18T13:25:24.563Z,101188.47
2023-11-18T13:27:51.044Z,101178.81
2023-11-18T13:30:19.096Z,101154.22
2023-11-18T13:32:45.585Z,101150.72
2023-11-18T13:35:14.619Z,101154.22
2023-11-18T13:37:42.777Z,101155.09
2023-11-18T13:40:09.565Z,101148.06
2023-11-18T13:42:38.709Z,101140.16
2023-11-18T13:45:12.684Z,101107.69
2023-11-18T13:47:39.458Z,101105.06
2023-11-18T13:50:10.137Z,101091.91
2023-11-18T13:52:38.549Z,101100.69
2023-11-18T13:55:09.966Z,101098.03
2023-11-18T13:57:36.468Z,101091.91
2023-11-18T14:00:06.730Z,101095.41
2023-11-18T14:02:34.513Z,101090.13
2023-11-18T14:05:01.158Z,101083.13
2023-11-18T14:07:28.381Z,101082.22
2023-11-18T14:09:57.700Z,101069.03
2023-11-18T14:12:26.943Z,101048.84
2023-11-18T14:14:54.028Z,101055.88
2023-11-18T14:17:20.540Z,101051.53
2023-11-18T14:19:47.316Z,101038.34
2023-11-18T14:22:13.927Z,101036.66
2023-11-18T14:24:41.482Z,101032.28
2023-11-18T14:27:11.022Z,101031.41
2023-11-18T14:29:38.882Z,101024.41
2023-11-18T14:32:07.181Z,101027.09
2023-11-18T14:34:34.395Z,101016.53
2023-11-18T14:37:02.775Z,101000.72
2023-11-18T14:39:29.205Z,101003.34
2023-11-18T14:41:55.651Z,100997.22
2023-11-18T14:44:22.231Z,101000.75
2023-11-18T14:46:48.836Z,100992.84
2023-11-18T14:49:15.542Z,101002.53
2023-11-18T14:51:42.073Z,100991.13
2023-11-18T14:54:09.635Z,100992.00
2023-11-18T14:56:36.405Z,100988.47
2023-11-18T14:59:05.938Z,100980.56
2023-11-18T15:01:32.450Z,100953.34
2023-11-18T15:03:58.927Z,100934.91
2023-11-18T15:06:27.081Z,100903.28
2023-11-18T15:08:54.493Z,100886.63
2023-11-18T15:11:24.574Z,100897.16
2023-11-18T15:13:53.858Z,100902.41
2023-11-18T15:16:20.560Z,100905.03
2023-11-18T15:18:53.222Z,100902.41
2023-11-18T15:21:19.900Z,100912.00
2023-11-18T15:23:46.596Z,100897.97
2023-11-18T15:26:13.109Z,100907.63
2023-11-18T15:28:39.714Z,100912.91
2023-11-18T15:31:06.387Z,100894.44
2023-11-18T15:33:33.102Z,100882.16
2023-11-18T15:35:59.751Z,100869.84
2023-11-18T15:38:26.234Z,100868.13
2023-11-18T15:40:52.816Z,100863.75
2023-11-18T15:43:19.482Z,100858.47
2023-11-18T15:45:45.975Z,100868.13
2023-11-18T15:48:12.664Z,100866.38
2023-11-18T15:50:39.358Z,100868.16
2023-11-18T15:53:08.954Z,100843.56
2023-11-18T15:55:37.260Z,100807.53
2023-11-18T15:58:04.769Z,100807.56
2023-11-18T16:00:31.402Z,100802.28
2023-11-18T16:03:02.130Z,100802.28
2023-11-18T16:05:34.413Z,100796.16
2023-11-18T16:08:02.579Z,100789.97
2023-11-18T16:10:29.191Z,100781.22
2023-11-18T16:12:56.687Z,100786.50
2023-11-18T16:15:23.751Z,100776.81
2023-11-18T16:17:50.804Z,100779.44
2023-11-18T16:20:19.417Z,100778.56
2023-11-18T16:22:48.727Z,100774.19
2023-11-18T16:25:20.981Z,100774.19
2023-11-18T16:27:47.614Z,100760.13
2023-11-18T16:30:14.702Z,100742.56
2023-11-18T16:32:41.479Z,100741.69
2023-11-18T16:35:12.959Z,100735.56
2023-11-18T16:37:40.565Z,100726.78
2023-11-18T16:40:17.177Z,100725.88
2023-11-18T16:42:51.634Z,100720.63
2023-11-18T16:45:20.808Z,100725.03
2023-11-18T16:47:51.577Z,100717.97
2023-11-18T16:50:18.399Z,100730.28
2023-11-18T16:52:44.997Z,100715.34
2023-11-18T16:55:11.735Z,100710.09
2023-11-18T16:57:38.308Z,100704.81
2023-11-18T17:00:16.035Z,100701.31
2023-11-18T17:02:48.798Z,100683.72
2023-11-18T17:05:15.593Z,100683.75
2023-11-18T17:07:42.142Z,100667.94
2023-11-18T17:10:12.652Z,100656.53
2023-11-18T17:12:43.474Z,100660.94
2023-11-18T17:15:16.962Z,100659.16
2023-11-18T17:17:46.816Z,100660.91
2023-11-18T17:20:14.254Z,100665.28
2023-11-18T17:22:41.111Z,100653.00
2023-11-18T17:25:13.777Z,100652.13
2023-11-18T17:27:41.062Z,100654.78
2023-11-18T17:30:12.987Z,100645.97
2023-11-18T17:32:48.914Z,100645.09
2023-11-18T17:35:16.436Z,100643.34
2023-11-18T17:37:44.464Z,100635.44
2023-11-18T17:40:12.270Z,100627.53
2023-11-18T17:42:42.247Z,100615.25
2023-11-18T17:45:09.531Z,100618.75
2023-11-18T17:47:37.620Z,100611.72
2023-11-18T17:50:12.866Z,100606.44
2023-11-18T17:52:42.209Z,100607.34
2023-11-18T17:55:09.349Z,100593.28
2023-11-18T17:57:36.298Z,100589.78
2023-11-18T18:00:03.026Z,100595.06
2023-11-18T18:02:31.979Z,100595.06
2023-11-18T18:04:58.546Z,100595.91
2023-11-18T18:07:25.372Z,100593.28
2023-11-18T18:09:51.823Z,100593.25
2023-11-18T18:12:18.357Z,100595.91
2023-11-18T18:14:44.792Z,100594.16
2023-11-18T18:17:11.505Z,100594.16
2023-11-18T18:19:38.353Z,100595.03
2023-11-18T18:22:04.864Z,100601.19
2023-11-18T18:24:34.159Z,100600.31
2023-11-18T18:27:01.166Z,100599.44
2023-11-18T18:29:27.688Z,100594.16
2023-11-18T18:31:54.548Z,100609.97
2023-11-18T18:34:21.011Z,100613.47
2023-11-18T18:36:48.063Z,100592.41
2023-11-18T18:39:14.675Z,100562.56
2023-11-18T18:41:42.335Z,100559.91
2023-11-18T18:44:08.875Z,100554.66
2023-11-18T18:46:35.357Z,100587.13
2023-11-18T18:49:01.938Z,100597.66
2023-11-18T18:51:28.944Z,100584.50
2023-11-18T18:53:55.503Z,100562.56
2023-11-18T18:56:22.097Z,100532.69
2023-11-18T18:58:49.428Z,100544.97
2023-11-18T19:01:15.924Z,100560.78
2023-11-18T19:03:42.532Z,100578.34
2023-11-18T19:06:11.836Z,100578.38
2023-11-18T19:08:38.535Z,100585.41
2023-11-18T19:11:06.075Z,100569.59
2023-11-18T19:13:32.647Z,100572.22
2023-11-18T19:15:59.113Z,100570.47
2023-11-18T19:18:25.726Z,100561.69
2023-11-18T19:20:52.293Z,100576.63
2023-11-18T19:23:19.718Z,100563.44
2023-11-18T19:25:46.269Z,100573.09
2023-11-18T19:28:13.254Z,100576.63
2023-11-18T19:30:39.815Z,100560.81
2023-11-18T19:33:06.409Z,100549.38
2023-11-18T19:35:33.004Z,100546.75
2023-11-18T19:38:02.058Z,100543.25
2023-11-18T19:40:28.650Z,100551.16
2023-11-18T19:42:55.327Z,100540.59
2023-11-18T19:45:22.806Z,100533.59
2023-11-18T19:47:50.342Z,100519.53
2023-11-18T19:52:53.037Z,100509.88
2023-11-18T19:55:19.870Z,100504.59
2023-11-18T19:57:47.760Z,100503.75
2023-11-18T20:00:18.178Z,100493.25
2023-11-18T20:02:45.534Z,100490.59
2023-11-18T20:05:12.374Z,100496.72
2023-11-18T20:07:39.719Z,100515.19
2023-11-18T20:10:09.174Z,100494.09
2023-11-18T20:12:36.089Z,100502.03
2023-11-18T20:15:02.665Z,100502.91
2023-11-18T20:17:29.139Z,100500.28
2023-11-18T20:19:55.666Z,100496.78
2023-11-18T20:22:22.207Z,100495.88
2023-11-18T20:24:48.705Z,100486.22
2023-11-18T20:27:15.181Z,100493.28
2023-11-18T20:29:41.745Z,100476.56
2023-11-18T20:32:08.962Z,100471.31
2023-11-18T20:34:35.692Z,100474.81
2023-11-18T20:37:02.147Z,100485.34
2023-11-18T20:39:28.912Z,100480.09
2023-11-18T20:41:55.570Z,100468.66
2023-11-18T20:44:22.265Z,100463.41
2023-11-18T20:46:48.953Z,100465.16
2023-11-18T20:49:18.152Z,100453.75
2023-11-18T20:51:44.942Z,100466.91
2023-11-18T20:54:11.383Z,100444.97
2023-11-18T20:56:37.896Z,100448.47
2023-11-18T20:59:04.820Z,100443.22
2023-11-18T21:01:31.510Z,100445.84
2023-11-18T21:03:58.104Z,100443.22
2023-11-18T21:06:24.822Z,100437.06
2023-11-18T21:08:51.619Z,100441.44
2023-11-18T21:11:18.388Z,100431.75
2023-11-18T21:13:44.931Z,100421.22
2023-11-18T21:16:11.479Z,100431.75
2023-11-18T21:18:38.153Z,100438.81
2023-11-18T21:21:05.921Z,100437.91
2023-11-18T21:23:32.408Z,100429.09
2023-11-18T21:25:59.121Z,100417.69
2023-11-18T21:28:26.224Z,100414.16
2023-11-18T21:30:53.468Z,100427.34
2023-11-18T21:33:20.611Z,100437.91
2023-11-18T21:35:47.110Z,100447.53
2023-11-18T21:38:13.627Z,100446.69
2023-11-18T21:40:40.222Z,100447.56
2023-11-18T21:43:06.674Z,100428.22
2023-11-18T21:45:33.184Z,100438.75
2023-11-18T21:48:05.203Z,100437.00
2023-11-18T21:50:34.168Z,100429.97
2023-11-18T21:53:01.891Z,100418.56
2023-11-18T21:55:28.383Z,100415.94
2023-11-18T21:57:54.918Z,100422.06
2023-11-18T22:00:21.499Z,100415.94
2023-11-18T22:02:51.258Z,100409.81
2023-11-18T22:05:18.488Z,100392.25
2023-11-18T22:07:45.068Z,100386.13
2023-11-18T22:10:22.233Z,100387.00
2023-11-18T22:12:50.086Z,100397.56
2023-11-18T22:15:18.410Z,100391.38
2023-11-18T22:17:45.187Z,100387.00
2023-11-18T22:20:13.316Z,100395.75
2023-11-18T22:22:40.042Z,100399.28
2023-11-18T22:25:07.902Z,100390.53
2023-11-18T22:27:35.238Z,100394.06
2023-11-18T22:30:01.881Z,100381.75
2023-11-18T22:32:28.435Z,100367.72
2023-11-18T22:34:55.391Z,100362.44
2023-11-18T22:37:23.304Z,100357.19
2023-11-18T22:39:49.800Z,100365.94
2023-11-18T22:42:16.651Z,100371.25
2023-11-18T22:44:46.405Z,100364.22
2023-11-18T22:47:13.499Z,100364.22
2023-11-18T22:49:41.688Z,100366.81
2023-11-18T22:52:08.943Z,100368.59
2023-11-18T22:54:35.636Z,100358.03
2023-11-18T22:57:02.476Z,100348.34
2023-11-18T22:59:28.970Z,100354.50
2023-11-18T23:01:55.492Z,100369.38
2023-11-18T23:04:22.666Z,100364.13
2023-11-18T23:06:55.667Z,100355.31
2023-11-18T23:09:22.680Z,100358.78
2023-11-18T23:11:49.213Z,100350.06
2023-11-18T23:14:15.811Z,100343.91
2023-11-18T23:16:44.261Z,100343.00
2023-11-18T23:19:11.867Z,100343.06
2023-11-18T23:21:39.095Z,100344.81
2023-11-18T23:24:06.697Z,100338.69
2023-11-18T23:26:33.232Z,100328.16
2023-11-18T23:28:59.690Z,100329.00
2023-11-18T23:31:26.419Z,100330.78
2023-11-18T23:33:53.135Z,100322.06
2023-11-18T23:36:19.631Z,100315.88
2023-11-18T23:38:49.792Z,100307.06
2023-11-18T23:41:16.512Z,100294.81
2023-11-18T23:43:43.049Z,100280.81
2023-11-18T23:46:09.656Z,100269.41
2023-11-18T23:48:40.320Z,100264.09
2023-11-18T23:51:07.220Z,100270.25
2023-11-18T23:53:33.714Z,100313.25
2023-11-18T23:56:00.488Z,100312.38
2023-11-18T23:58:27.016Z,100304.53
